LHSM/SOB METAR and TAF weather

Enter ICAO airport designator
Station Type Date Time Source
LHSM METAR 2022/01/27 23:15 UTC NOAA

LHSM 272315Z AUTO 00000KT 4300 BR NSC M01/M02 Q1020


Station Type Date Time Source
LHSM Decoded METAR 2022/01/27 23:15 UTC NOAA

Station name not available
Jan 27, 2022 - 06:15 PM EST / 2022.01.27 2315 UTC
Wind: Calm:0
Visibility: 2 mile(s):0
Weather: mist
Temperature: 30 F (-1 C)
Dew Point: 28 F (-2 C)
Relative Humidity: 92%
Pressure (altimeter): 30.12 in. Hg (1020 hPa)
ob: LHSM 272315Z AUTO 00000KT 4300 BR NSC M01/M02 Q1020
cycle: 23

Station Type Date Time Source
LHSM TAF UTC NOAA

Error!

Example: see airport list